Time;durP1;ratioP1;P1;durP2;ratioP2;P2;SDS_P1;SDS_P2;PMS_P1;PMS_P2;Temp;Humidity;BMP_temperature;BMP_pressure;BME280_temperature;BME280_humidity;BME280_pressure;Samples;Min_cycle;Max_cycle;Signal;HPM_P1;HPM_P2
2022/03/22 00:00:46;;;;;;;6.13;5.20;;;6.20;39.80;;;;;;5053023;28;20598;-54
2022/03/22 00:03:11;;;;;;;6.50;4.93;;;6.20;40.00;;;;;;5052440;28;20678;-54
2022/03/22 00:05:42;;;;;;;10.87;6.17;;;6.10;39.80;;;;;;5052855;28;20179;-50
2022/03/22 00:08:09;;;;;;;7.63;6.17;;;6.10;39.50;;;;;;5052645;28;20610;-55
2022/03/22 00:10:36;;;;;;;11.10;7.17;;;6.10;39.70;;;;;;5052481;28;20861;-51
2022/03/22 00:13:04;;;;;;;8.07;6.27;;;6.00;39.70;;;;;;5052012;28;20183;-50
2022/03/22 00:15:30;;;;;;;7.53;6.23;;;6.10;39.50;;;;;;5034946;28;20583;-53
2022/03/22 00:17:55;;;;;;;7.17;6.03;;;6.00;39.40;;;;;;5052725;28;20179;-52
2022/03/22 00:20:21;;;;;;;6.83;6.07;;;6.00;39.60;;;;;;5052448;28;20219;-52
2022/03/22 00:22:48;;;;;;;7.70;6.30;;;6.00;39.60;;;;;;5052086;28;20207;-50
2022/03/22 00:25:16;;;;;;;8.87;5.80;;;6.00;39.90;;;;;;5052314;28;20174;-52
2022/03/22 00:27:54;;;;;;;8.43;5.97;;;5.90;40.00;;;;;;5052681;28;20176;-53
2022/03/22 00:30:23;;;;;;;7.60;5.70;;;5.90;40.40;;;;;;5055905;28;20197;-55
2022/03/22 00:32:53;;;;;;;8.20;6.03;;;5.80;40.20;;;;;;5071974;28;20186;-49
2022/03/22 00:35:20;;;;;;;9.60;7.87;;;5.80;39.80;;;;;;5072190;28;20169;-49
2022/03/22 00:37:49;;;;;;;6.77;5.53;;;5.80;39.50;;;;;;5072360;28;20173;-52
2022/03/22 00:40:18;;;;;;;7.20;5.97;;;5.80;39.60;;;;;;5072068;28;20579;-54
2022/03/22 00:42:48;;;;;;;7.87;6.00;;;5.70;39.70;;;;;;5071817;28;20194;-49
2022/03/22 00:45:16;;;;;;;7.33;5.37;;;5.70;40.00;;;;;;5072417;28;20252;-53
2022/03/22 00:47:45;;;;;;;5.80;4.90;;;5.60;40.30;;;;;;5072128;28;20276;-53
2022/03/22 00:50:12;;;;;;;6.77;4.90;;;5.60;40.70;;;;;;5071990;28;20636;-52
2022/03/22 00:52:38;;;;;;;6.20;5.53;;;5.60;41.10;;;;;;5071613;28;20570;-51
2022/03/22 00:55:05;;;;;;;5.63;4.70;;;5.60;40.80;;;;;;5072128;28;20189;-52
2022/03/22 00:57:33;;;;;;;6.13;5.03;;;5.60;41.00;;;;;;5071822;28;20174;-50
2022/03/22 01:00:02;;;;;;;7.17;5.43;;;5.60;41.20;;;;;;5072047;28;20162;-48
2022/03/22 01:02:28;;;;;;;5.93;4.90;;;5.60;41.20;;;;;;5071005;28;20194;-53
2022/03/22 01:04:56;;;;;;;5.77;4.87;;;5.70;41.90;;;;;;5071491;28;20178;-54
2022/03/22 01:07:21;;;;;;;9.23;4.97;;;5.60;41.60;;;;;;5071493;28;20183;-53
2022/03/22 01:09:47;;;;;;;5.53;4.83;;;5.60;41.70;;;;;;5071742;28;20535;-52
2022/03/22 01:12:12;;;;;;;8.37;5.50;;;5.60;41.90;;;;;;5071692;28;20197;-50
2022/03/22 01:14:38;;;;;;;6.97;5.17;;;5.60;42.10;;;;;;5071501;28;20213;-55
2022/03/22 01:17:06;;;;;;;6.43;4.90;;;5.50;41.60;;;;;;5071828;28;20551;-51
2022/03/22 01:19:32;;;;;;;7.27;5.40;;;5.50;42.00;;;;;;5071711;28;20544;-50
2022/03/22 01:21:58;;;;;;;5.60;5.00;;;5.40;41.80;;;;;;5068697;28;20211;-50
2022/03/22 01:24:25;;;;;;;8.57;5.50;;;5.40;41.80;;;;;;5051485;28;20163;-50
2022/03/22 01:26:51;;;;;;;5.70;5.10;;;5.30;41.50;;;;;;5051742;28;20248;-52
2022/03/22 01:29:16;;;;;;;6.90;5.00;;;5.30;41.10;;;;;;5051412;28;20213;-49
2022/03/22 01:31:42;;;;;;;6.47;5.30;;;5.30;41.30;;;;;;5051662;28;20203;-50
2022/03/22 01:34:08;;;;;;;6.67;5.43;;;5.40;41.50;;;;;;5051230;28;20202;-51
2022/03/22 01:36:34;;;;;;;5.93;4.83;;;5.30;41.40;;;;;;5051686;28;20639;-53
2022/03/22 01:38:59;;;;;;;6.10;4.97;;;5.30;41.50;;;;;;5051302;28;20187;-52
2022/03/22 01:41:25;;;;;;;5.80;4.83;;;5.30;41.70;;;;;;5051088;28;20202;-49
2022/03/22 01:43:50;;;;;;;7.10;5.40;;;5.30;41.80;;;;;;5051464;28;20274;-50
2022/03/22 01:46:20;;;;;;;6.07;5.07;;;5.30;41.90;;;;;;5051359;28;20190;-54
2022/03/22 01:48:46;;;;;;;9.43;5.10;;;5.30;42.50;;;;;;5051518;28;20183;-49
2022/03/22 01:51:12;;;;;;;5.47;4.90;;;5.30;42.30;;;;;;5033317;28;20194;-49
2022/03/22 01:53:40;;;;;;;6.63;5.10;;;5.30;42.30;;;;;;5050921;28;20207;-51
2022/03/22 01:56:06;;;;;;;6.47;5.33;;;5.20;42.50;;;;;;5051365;28;20209;-49
2022/03/22 01:58:32;;;;;;;6.43;5.27;;;5.20;42.40;;;;;;5033607;28;20206;-50
2022/03/22 02:05:51;;;;;;;6.23;4.93;;;5.10;42.50;;;;;;5051007;28;20223;-50
2022/03/22 02:06:32;;;;;;;7.63;5.30;;;5.00;42.60;;;;;;5044278;28;20245;-49
2022/03/22 02:08:57;;;;;;;7.07;5.03;;;5.00;42.40;;;;;;5046244;28;20175;-50
2022/03/22 02:11:23;;;;;;;6.03;4.87;;;5.00;42.40;;;;;;5050381;28;20530;-51
2022/03/22 02:13:50;;;;;;;6.10;4.97;;;5.00;42.90;;;;;;5050391;28;20179;-52
2022/03/22 02:16:15;;;;;;;6.40;5.20;;;4.80;43.60;;;;;;5054546;28;20183;-53
2022/03/22 02:18:42;;;;;;;6.50;5.20;;;4.80;43.10;;;;;;5054446;28;20229;-51
2022/03/22 02:21:09;;;;;;;7.57;5.30;;;4.70;43.30;;;;;;5054567;28;20203;-51
2022/03/22 02:23:50;;;;;;;6.63;5.40;;;4.70;43.60;;;;;;5054291;28;20203;-55
2022/03/22 02:26:16;;;;;;;7.07;5.33;;;4.60;44.00;;;;;;5054590;28;20179;-49
2022/03/22 02:28:43;;;;;;;5.90;5.30;;;4.50;45.20;;;;;;5054594;28;20207;-50
2022/03/22 02:31:09;;;;;;;7.13;6.33;;;4.40;45.30;;;;;;5054603;28;20179;-51
2022/03/22 02:33:35;;;;;;;9.37;6.47;;;4.30;45.40;;;;;;5054390;28;20210;-50
2022/03/22 02:36:01;;;;;;;10.17;7.10;;;4.30;46.10;;;;;;5054590;28;20183;-52
2022/03/22 02:38:26;;;;;;;9.97;7.73;;;4.20;46.00;;;;;;5054525;28;20198;-54
2022/03/22 02:40:52;;;;;;;10.10;8.30;;;4.20;45.60;;;;;;5054299;28;20201;-49
2022/03/22 02:43:18;;;;;;;9.80;8.43;;;4.10;45.60;;;;;;5053859;28;20679;-50
2022/03/22 02:45:44;;;;;;;10.80;9.03;;;4.10;45.80;;;;;;5054363;28;20186;-54
2022/03/22 02:48:11;;;;;;;11.23;8.57;;;4.10;46.00;;;;;;5054428;28;20171;-53
2022/03/22 02:50:36;;;;;;;11.67;8.60;;;4.10;46.60;;;;;;5054241;28;20521;-55
2022/03/22 02:53:02;;;;;;;10.87;7.87;;;4.10;45.90;;;;;;5054109;28;20331;-50
2022/03/22 02:55:27;;;;;;;10.90;8.20;;;4.00;46.30;;;;;;5054299;28;20171;-49
2022/03/22 02:57:53;;;;;;;7.60;6.30;;;4.00;45.80;;;;;;5054546;28;20640;-53
2022/03/22 03:00:18;;;;;;;7.80;6.47;;;4.00;45.80;;;;;;5053821;28;20229;-52
2022/03/22 03:02:49;;;;;;;7.90;6.60;;;4.00;45.70;;;;;;5053897;28;20199;-52
2022/03/22 03:05:16;;;;;;;8.73;6.83;;;4.00;45.30;;;;;;5054134;28;20532;-49
2022/03/22 03:07:41;;;;;;;7.87;6.47;;;4.00;45.40;;;;;;5054071;28;20192;-55
2022/03/22 03:10:08;;;;;;;10.03;7.10;;;4.00;45.20;;;;;;5053969;28;20163;-52
2022/03/22 03:12:34;;;;;;;8.37;6.47;;;4.00;45.30;;;;;;5053623;28;20544;-53
2022/03/22 03:15:00;;;;;;;8.83;6.53;;;4.00;45.00;;;;;;5053935;28;20228;-49
2022/03/22 03:17:25;;;;;;;8.77;6.97;;;4.00;44.80;;;;;;5053571;28;20179;-50
2022/03/22 03:19:51;;;;;;;8.53;7.37;;;3.90;44.70;;;;;;5053810;28;20246;-51
2022/03/22 03:22:18;;;;;;;9.20;7.23;;;3.90;44.70;;;;;;5053285;28;20630;-52
2022/03/22 03:24:43;;;;;;;8.67;6.63;;;3.90;45.30;;;;;;5053891;28;20191;-53
2022/03/22 03:27:09;;;;;;;7.53;6.17;;;3.80;46.40;;;;;;5052519;28;20190;-52
2022/03/22 03:29:34;;;;;;;7.00;5.93;;;3.80;47.40;;;;;;5053711;28;20658;-53
2022/03/22 03:32:00;;;;;;;6.97;5.60;;;3.70;46.80;;;;;;5051483;28;20202;-51
2022/03/22 03:34:25;;;;;;;6.40;5.27;;;3.60;46.20;;;;;;5052452;28;20206;-54
2022/03/22 03:36:51;;;;;;;7.43;5.63;;;3.70;45.70;;;;;;5061389;28;20221;-51
2022/03/22 03:39:17;;;;;;;7.10;5.47;;;3.60;45.50;;;;;;5073548;28;20197;-53
2022/03/22 03:41:56;;;;;;;6.53;4.97;;;3.70;46.10;;;;;;5058546;28;20249;-53
2022/03/22 03:47:19;;;;;;;5.83;5.03;;;3.50;47.00;;;;;;5053682;28;20183;-54
2022/03/22 03:49:49;;;;;;;7.47;5.57;;;3.40;47.50;;;;;;5052876;28;20461;-54
2022/03/22 03:52:18;;;;;;;8.20;5.03;;;3.30;47.90;;;;;;5052756;28;20607;-52
2022/03/22 03:54:45;;;;;;;7.77;5.20;;;3.20;47.80;;;;;;5053094;28;20171;-50
2022/03/22 03:57:12;;;;;;;6.30;4.60;;;3.10;48.60;;;;;;5053299;28;20547;-49
2022/03/22 03:59:38;;;;;;;9.03;5.30;;;3.10;48.90;;;;;;5053115;28;20182;-50
2022/03/22 04:02:06;;;;;;;5.10;4.60;;;3.10;48.50;;;;;;5053071;28;20544;-49
2022/03/22 04:04:32;;;;;;;9.40;5.23;;;3.00;48.10;;;;;;5052792;28;20406;-51
2022/03/22 04:06:58;;;;;;;7.03;5.20;;;3.00;47.90;;;;;;5052739;28;20203;-52
2022/03/22 04:09:23;;;;;;;8.47;5.37;;;3.00;47.90;;;;;;5052726;28;20961;-51
2022/03/22 04:11:49;;;;;;;6.30;5.03;;;2.90;48.50;;;;;;5052754;28;20290;-51
2022/03/22 04:14:15;;;;;;;6.83;5.30;;;2.90;48.30;;;;;;5052476;28;20175;-52
2022/03/22 04:16:41;;;;;;;8.60;5.63;;;2.90;48.60;;;;;;5052795;28;20599;-50
2022/03/22 04:19:08;;;;;;;7.13;5.83;;;2.90;49.60;;;;;;5052623;28;20174;-51
2022/03/22 04:21:34;;;;;;;5.87;5.10;;;2.80;50.10;;;;;;5052391;28;20450;-49
2022/03/22 04:24:10;;;;;;;7.27;5.20;;;2.70;50.20;;;;;;5052333;28;20783;-49
2022/03/22 04:26:38;;;;;;;6.87;5.40;;;2.60;50.00;;;;;;5052757;28;20543;-51
2022/03/22 04:34:34;;;;;;;9.23;5.50;;;2.60;50.50;;;;;;5052530;28;20436;-51
2022/03/22 04:37:00;;;;;;;8.33;6.00;;;2.60;50.10;;;;;;5052110;28;20410;-49
2022/03/22 04:39:28;;;;;;;9.20;5.73;;;2.60;50.50;;;;;;5052298;28;20174;-53
2022/03/22 04:41:54;;;;;;;8.03;5.67;;;2.60;50.80;;;;;;5069158;28;20460;-53
2022/03/22 04:44:20;;;;;;;7.37;5.60;;;2.50;51.00;;;;;;5071796;28;20431;-51
2022/03/22 04:46:46;;;;;;;6.37;5.30;;;2.50;51.90;;;;;;5072204;28;20428;-54
2022/03/22 04:49:12;;;;;;;8.77;5.00;;;2.40;52.20;;;;;;5072126;28;20409;-53
2022/03/22 04:57:06;;;;;;;9.33;5.90;;;2.20;52.10;;;;;;5056509;28;20512;-49
2022/03/22 04:59:31;;;;;;;7.33;5.53;;;2.20;52.00;;;;;;5051310;28;20425;-50
2022/03/22 05:01:57;;;;;;;10.77;5.67;;;2.20;52.00;;;;;;5051309;28;20583;-52
2022/03/22 05:04:23;;;;;;;6.17;5.37;;;2.20;52.00;;;;;;5056069;28;20760;-51
2022/03/22 05:06:48;;;;;;;6.67;5.30;;;2.20;51.90;;;;;;5071620;28;20174;-50
2022/03/22 05:09:14;;;;;;;7.13;5.37;;;2.20;52.40;;;;;;5071626;28;20174;-49
2022/03/22 05:11:40;;;;;;;5.60;4.90;;;2.10;52.60;;;;;;5071341;28;20214;-52
2022/03/22 05:14:06;;;;;;;7.87;5.23;;;2.10;53.40;;;;;;5056237;28;20674;-52
2022/03/22 05:16:32;;;;;;;6.87;5.10;;;2.10;53.00;;;;;;5051658;28;20179;-52
2022/03/22 05:18:58;;;;;;;5.90;4.83;;;2.10;52.80;;;;;;5051816;28;20419;-52
2022/03/22 05:21:25;;;;;;;6.50;5.47;;;2.10;52.10;;;;;;5051450;28;20528;-54
2022/03/22 05:23:51;;;;;;;6.67;5.37;;;2.20;51.80;;;;;;5052810;28;20603;-51
2022/03/22 05:26:17;;;;;;;6.77;5.17;;;2.10;51.50;;;;;;5051435;28;20404;-53
2022/03/22 05:28:44;;;;;;;7.53;5.00;;;2.10;51.50;;;;;;5051631;28;20766;-52
2022/03/22 05:31:11;;;;;;;6.83;5.10;;;2.20;51.50;;;;;;5051050;28;20175;-51
2022/03/22 05:33:38;;;;;;;6.23;4.90;;;2.30;51.60;;;;;;5051145;28;20441;-51
2022/03/22 05:36:04;;;;;;;6.83;5.10;;;2.30;51.90;;;;;;5051380;28;20402;-51
2022/03/22 05:38:30;;;;;;;8.77;5.73;;;2.30;51.90;;;;;;5051979;28;20469;-52
2022/03/22 05:40:56;;;;;;;6.10;4.80;;;2.30;51.80;;;;;;5051528;28;20957;-51
2022/03/22 05:43:24;;;;;;;7.67;5.50;;;2.40;51.50;;;;;;5051322;28;20508;-49
2022/03/22 05:45:50;;;;;;;7.33;5.20;;;2.40;51.20;;;;;;5051464;28;20167;-49
2022/03/22 05:48:16;;;;;;;5.83;5.03;;;2.30;53.30;;;;;;5051526;28;20914;-55
2022/03/22 05:50:42;;;;;;;6.73;5.30;;;2.20;54.00;;;;;;5054305;28;20652;-52
2022/03/22 05:53:10;;;;;;;8.13;5.53;;;2.20;54.20;;;;;;5055143;28;20479;-53
2022/03/22 05:55:36;;;;;;;8.33;5.90;;;1.90;55.40;;;;;;5055625;28;20179;-53
2022/03/22 05:58:02;;;;;;;7.37;5.63;;;1.90;55.50;;;;;;5055486;28;20417;-49
2022/03/22 06:00:28;;;;;;;8.57;6.20;;;1.90;56.00;;;;;;5055218;28;20467;-50
2022/03/22 06:02:53;;;;;;;7.97;5.60;;;1.90;56.60;;;;;;5053707;28;20218;-53
2022/03/22 06:05:19;;;;;;;7.37;5.93;;;1.90;55.80;;;;;;5047681;28;20247;-49
2022/03/22 06:07:45;;;;;;;10.10;6.83;;;2.00;55.60;;;;;;5054479;28;20201;-51
2022/03/22 06:10:14;;;;;;;8.50;6.00;;;1.40;58.30;;;;;;5055211;28;20190;-50
2022/03/22 06:12:48;;;;;;;8.90;6.60;;;1.30;59.50;;;;;;5036978;28;20191;-52
2022/03/22 06:15:20;;;;;;;7.80;5.83;;;1.50;59.00;;;;;;5054877;28;20771;-49
2022/03/22 06:17:49;;;;;;;6.70;5.57;;;1.60;57.80;;;;;;5055194;28;20410;-49
2022/03/22 06:20:16;;;;;;;6.90;5.77;;;1.80;57.50;;;;;;5052672;28;20960;-49
2022/03/22 06:22:42;;;;;;;7.70;5.60;;;2.00;57.40;;;;;;5053895;28;21355;-51
2022/03/22 06:25:09;;;;;;;9.67;6.20;;;2.00;56.00;;;;;;5054082;28;20429;-53
2022/03/22 06:27:35;;;;;;;8.43;5.07;;;2.10;55.40;;;;;;5054508;28;20167;-53
2022/03/22 06:30:10;;;;;;;8.63;5.60;;;2.10;55.60;;;;;;5054288;28;20463;-54
2022/03/22 06:33:07;;;;;;;5.67;5.03;;;2.30;55.80;;;;;;5054384;28;20429;-49
2022/03/22 06:35:34;;;;;;;5.87;5.27;;;2.50;56.60;;;;;;5054390;28;20417;-49
2022/03/22 06:38:00;;;;;;;6.23;4.70;;;2.70;56.50;;;;;;5054238;28;20413;-50
2022/03/22 06:40:28;;;;;;;6.77;5.30;;;2.90;55.70;;;;;;5054368;28;20441;-49
2022/03/22 06:42:55;;;;;;;6.50;4.87;;;3.10;55.60;;;;;;5054022;28;20839;-50
2022/03/22 06:45:21;;;;;;;6.10;4.70;;;3.30;55.00;;;;;;5054011;28;20420;-51
2022/03/22 06:47:46;;;;;;;5.60;5.00;;;3.50;54.50;;;;;;5053549;28;20402;-53
2022/03/22 06:50:14;;;;;;;6.33;5.40;;;3.70;53.90;;;;;;5053563;28;20167;-51
2022/03/22 06:52:40;;;;;;;8.50;4.87;;;3.80;53.70;;;;;;5052501;28;20236;-51
2022/03/22 06:55:08;;;;;;;5.57;4.93;;;4.00;53.50;;;;;;5052959;28;20178;-51
2022/03/22 06:57:34;;;;;;;8.83;5.80;;;4.10;53.30;;;;;;5054564;28;20175;-51
2022/03/22 07:00:00;;;;;;;6.00;5.33;;;4.20;54.30;;;;;;5053889;28;20687;-50
2022/03/22 07:02:26;;;;;;;8.93;6.77;;;4.20;54.40;;;;;;5053743;28;20210;-48
2022/03/22 07:04:52;;;;;;;8.50;6.63;;;4.20;58.30;;;;;;5053986;28;20171;-51
2022/03/22 07:07:18;;;;;;;9.23;6.70;;;4.00;60.90;;;;;;5054041;28;20539;-46
2022/03/22 07:09:45;;;;;;;7.50;6.50;;;3.80;63.90;;;;;;5056278;28;20174;-48
2022/03/22 07:12:11;;;;;;;8.83;7.73;;;3.90;63.60;;;;;;5053541;28;20282;-50
2022/03/22 07:14:40;;;;;;;9.50;7.60;;;3.80;65.00;;;;;;5053761;28;20262;-49
2022/03/22 07:17:07;;;;;;;8.90;7.00;;;3.40;66.50;;;;;;5053709;28;20636;-49
2022/03/22 07:19:34;;;;;;;9.57;7.40;;;3.50;68.40;;;;;;5053151;28;20401;-51
2022/03/22 07:22:01;;;;;;;7.70;6.50;;;3.70;68.40;;;;;;5052485;28;20207;-49
2022/03/22 07:24:26;;;;;;;10.50;6.80;;;3.90;67.10;;;;;;5047862;28;20207;-51
2022/03/22 07:26:52;;;;;;;10.63;6.77;;;4.10;65.40;;;;;;5053242;28;20202;-55
2022/03/22 07:29:17;;;;;;;7.53;6.20;;;4.40;64.40;;;;;;5052631;28;20232;-53
2022/03/22 07:31:43;;;;;;;10.43;6.23;;;4.60;59.70;;;;;;5035572;28;20199;-53
2022/03/22 07:34:11;;;;;;;7.27;6.00;;;4.80;61.00;;;;;;5052794;28;20175;-50
2022/03/22 07:36:39;;;;;;;11.60;7.30;;;5.00;59.20;;;;;;5053466;28;20167;-56
2022/03/22 07:39:05;;;;;;;7.10;5.90;;;5.10;65.90;;;;;;5053439;28;20257;-52
2022/03/22 07:41:31;;;;;;;9.77;7.47;;;5.40;67.60;;;;;;5051729;28;20210;-55
2022/03/22 07:43:56;;;;;;;8.73;6.33;;;5.30;65.90;;;;;;5049607;28;20644;-52
2022/03/22 07:46:23;;;;;;;8.13;6.67;;;;;;;;;;5051712;28;20186;-49
2022/03/22 07:48:50;;;;;;;7.90;6.70;;;5.60;79.80;;;;;;5052314;28;20179;-53
2022/03/22 07:54:00;;;;;;;10.63;6.67;;;5.70;83.40;;;;;;5052285;28;20632;-53
2022/03/22 07:56:26;;;;;;;8.13;6.50;;;;;;;;;;5053124;28;20260;-52
2022/03/22 07:58:52;;;;;;;6.67;5.97;;;6.00;69.70;;;;;;5053014;28;20178;-51
2022/03/22 08:01:17;;;;;;;7.87;6.43;;;6.30;74.60;;;;;;5052336;28;20199;-51
2022/03/22 08:03:43;;;;;;;8.47;6.57;;;6.20;78.70;;;;;;5052482;28;20195;-49
2022/03/22 08:06:09;;;;;;;7.33;6.20;;;6.40;71.50;;;;;;5053025;28;20210;-51
2022/03/22 08:08:37;;;;;;;9.47;6.27;;;;;;;;;;5052770;28;20182;-49
2022/03/22 08:11:05;;;;;;;7.47;6.47;;;6.50;82.60;;;;;;5053030;28;20202;-51
2022/03/22 08:13:32;;;;;;;7.60;6.60;;;6.80;64.20;;;;;;5051915;28;20537;-55
2022/03/22 08:15:57;;;;;;;7.10;6.37;;;6.70;68.00;;;;;;5052780;28;20171;-53
2022/03/22 08:18:24;;;;;;;6.90;5.73;;;;;;;;;;5052268;28;20254;-54
2022/03/22 08:20:49;;;;;;;9.20;6.07;;;7.60;64.30;;;;;;5052605;28;20333;-54
2022/03/22 08:23:15;;;;;;;7.37;6.00;;;7.70;61.10;;;;;;5034291;28;20302;-52
2022/03/22 08:25:43;;;;;;;8.83;5.53;;;7.60;55.60;;;;;;5052507;28;20171;-49
2022/03/22 08:28:10;;;;;;;7.93;6.23;;;7.70;54.40;;;;;;5052727;28;20632;-52
2022/03/22 08:30:37;;;;;;;7.13;5.80;;;7.90;55.80;;;;;;5052346;28;20266;-50
2022/03/22 08:33:09;;;;;;;7.53;5.83;;;8.10;55.40;;;;;;5052077;28;20567;-51
2022/03/22 08:35:45;;;;;;;6.87;5.53;;;8.30;53.70;;;;;;5052522;28;20186;-52
2022/03/22 08:38:12;;;;;;;6.37;5.63;;;8.50;51.30;;;;;;5052273;28;20163;-50
2022/03/22 08:40:39;;;;;;;6.23;5.00;;;8.50;50.10;;;;;;5052450;28;20167;-50
2022/03/22 08:43:08;;;;;;;7.40;5.60;;;8.70;49.30;;;;;;5051899;28;20199;-50
2022/03/22 08:45:35;;;;;;;7.10;5.37;;;8.90;48.60;;;;;;5052423;28;20675;-51
2022/03/22 08:48:02;;;;;;;8.17;5.80;;;9.00;47.90;;;;;;5052257;28;20190;-50
2022/03/22 08:50:28;;;;;;;7.03;5.30;;;9.20;47.90;;;;;;5052222;28;20182;-53
2022/03/22 08:52:57;;;;;;;7.07;5.57;;;9.50;47.30;;;;;;5033242;28;20213;-53
2022/03/22 08:55:24;;;;;;;6.10;5.00;;;9.70;49.20;;;;;;5052081;28;20209;-52
2022/03/22 08:57:50;;;;;;;5.80;5.17;;;9.90;47.60;;;;;;5052080;28;20187;-51
2022/03/22 09:00:19;;;;;;;7.10;5.30;;;10.00;43.50;;;;;;5051957;28;20178;-51
2022/03/22 09:02:46;;;;;;;6.60;4.77;;;10.30;43.10;;;;;;5051589;28;20252;-53
2022/03/22 09:07:58;;;;;;;5.67;5.07;;;10.70;41.50;;;;;;5049528;28;20289;-50
2022/03/22 09:10:28;;;;;;;5.70;4.90;;;11.00;40.80;;;;;;5051226;28;20171;-49
2022/03/22 09:12:55;;;;;;;4.80;4.30;;;11.20;40.10;;;;;;5051281;28;20781;-50
2022/03/22 09:15:22;;;;;;;5.47;4.53;;;11.40;37.00;;;;;;5051545;28;20232;-56
2022/03/22 09:17:49;;;;;;;8.03;4.40;;;11.70;36.70;;;;;;5051634;28;20178;-52
2022/03/22 09:20:15;;;;;;;6.03;4.73;;;11.90;37.10;;;;;;5051733;28;20172;-49
2022/03/22 09:22:43;;;;;;;4.53;4.13;;;12.10;36.90;;;;;;5051019;28;20729;-50
2022/03/22 09:25:09;;;;;;;4.80;4.07;;;12.30;34.60;;;;;;5050454;28;20659;-49
2022/03/22 09:27:35;;;;;;;4.70;4.17;;;12.60;33.40;;;;;;5051458;28;20167;-52
2022/03/22 09:30:02;;;;;;;4.57;4.17;;;12.80;34.50;;;;;;5051601;28;20187;-50
2022/03/22 09:32:27;;;;;;;5.23;4.20;;;13.10;32.50;;;;;;5051400;28;20198;-54
2022/03/22 09:34:53;;;;;;;4.83;4.30;;;13.50;32.00;;;;;;5051804;28;20173;-51
2022/03/22 09:37:18;;;;;;;4.53;4.03;;;13.80;31.60;;;;;;5051680;28;20181;-55
2022/03/22 09:39:45;;;;;;;4.50;4.07;;;14.10;29.50;;;;;;5051330;28;20173;-52
2022/03/22 09:42:11;;;;;;;4.63;3.80;;;14.50;29.40;;;;;;5050911;28;20214;-56
2022/03/22 09:44:38;;;;;;;5.07;3.83;;;14.70;30.00;;;;;;5051262;28;20175;-53
2022/03/22 09:47:04;;;;;;;4.70;4.07;;;15.10;30.00;;;;;;5051547;28;20576;-50
2022/03/22 09:49:31;;;;;;;4.17;3.77;;;15.70;29.50;;;;;;5051350;28;20186;-49
2022/03/22 09:51:58;;;;;;;5.60;3.93;;;16.30;28.10;;;;;;5051659;28;20187;-51
2022/03/22 09:54:23;;;;;;;4.10;3.70;;;17.10;27.90;;;;;;5051354;28;20626;-50
2022/03/22 09:56:51;;;;;;;3.83;3.53;;;17.90;26.80;;;;;;5051357;28;20492;-50
2022/03/22 09:59:19;;;;;;;4.83;3.70;;;18.60;25.60;;;;;;5051693;28;20271;-51
2022/03/22 10:01:45;;;;;;;3.70;3.40;;;19.30;25.00;;;;;;5051094;28;20199;-53
2022/03/22 10:04:13;;;;;;;4.33;3.93;;;19.70;24.50;;;;;;5051536;28;20174;-51
2022/03/22 10:07:02;;;;;;;3.50;3.20;;;20.50;23.90;;;;;;5033338;28;20171;-54
2022/03/22 10:09:31;;;;;;;3.90;3.00;;;21.30;24.40;;;;;;5051264;28;20164;-55
2022/03/22 10:11:57;;;;;;;3.85;3.45;;;22.70;25.80;;;;;;5051223;28;20321;-53
2022/03/22 10:14:36;;;;;;;3.80;3.40;;;23.80;22.30;;;;;;5050971;28;20260;-54
2022/03/22 10:17:13;;;;;;;3.63;3.28;;;24.30;23.40;;;;;;5049176;28;20175;-51
2022/03/22 10:19:44;;;;;;;3.70;3.40;;;25.70;24.40;;;;;;5051163;28;20171;-55
2022/03/22 10:22:10;;;;;;;3.13;2.83;;;25.80;21.90;;;;;;5050942;28;20584;-53
2022/03/22 10:24:47;;;;;;;6.03;2.65;;;26.60;21.70;;;;;;5050912;28;20183;-52
2022/03/22 10:27:42;;;;;;;2.63;2.42;;;27.10;18.40;;;;;;5051281;28;20183;-50
2022/03/22 10:30:08;;;;;;;2.83;2.63;;;27.80;18.80;;;;;;5049103;28;20191;-54
2022/03/22 10:32:37;;;;;;;3.28;2.67;;;28.60;25.80;;;;;;5057726;28;20301;-55
2022/03/22 10:35:30;;;;;;;3.45;2.58;;;28.40;19.10;;;;;;5050551;28;20175;-52
2022/03/22 10:37:57;;;;;;;3.25;2.42;;;28.40;17.20;;;;;;5051297;28;20529;-56
2022/03/22 10:40:28;;;;;;;3.70;2.50;;;29.10;20.60;;;;;;5054140;28;20564;-54
2022/03/22 10:42:58;;;;;;;3.25;2.53;;;28.70;20.40;;;;;;5054087;28;20195;-56
2022/03/22 10:45:26;;;;;;;4.80;2.28;;;29.30;24.50;;;;;;5054433;28;20179;-52
2022/03/22 10:47:51;;;;;;;2.90;2.47;;;29.50;18.60;;;;;;5044722;28;20185;-57
2022/03/22 10:50:18;;;;;;;2.60;2.40;;;;;;;;;;5074191;28;20543;-58
2022/03/22 10:52:50;;;;;;;2.60;2.40;;;30.20;16.30;;;;;;5074069;28;20203;-52
2022/03/22 10:55:19;;;;;;;3.20;2.30;;;30.30;15.60;;;;;;5074300;28;20531;-52
2022/03/22 10:58:00;;;;;;;3.53;2.28;;;30.70;15.20;;;;;;5074541;28;20205;-54
2022/03/22 11:00:26;;;;;;;2.47;2.22;;;31.20;15.80;;;;;;5074218;28;20162;-55
2022/03/22 11:02:55;;;;;;;4.10;2.30;;;30.90;17.50;;;;;;5073890;28;20202;-53
2022/03/22 11:05:23;;;;;;;2.83;2.30;;;31.30;16.60;;;;;;5061272;28;20182;-52
2022/03/22 11:07:53;;;;;;;2.38;2.03;;;30.20;16.90;;;;;;5053955;28;20172;-49
2022/03/22 11:10:24;;;;;;;1.75;1.65;;;30.70;15.60;;;;;;5053882;28;20656;-54
2022/03/22 11:12:53;;;;;;;2.72;2.17;;;31.20;15.10;;;;;;5053692;28;20923;-53
2022/03/22 11:15:20;;;;;;;2.47;2.10;;;32.10;22.40;;;;;;5053916;28;20667;-53
2022/03/22 11:17:49;;;;;;;2.35;2.20;;;32.30;14.50;;;;;;5053815;28;20210;-51
2022/03/22 11:20:15;;;;;;;3.45;1.98;;;32.20;24.20;;;;;;5053776;28;20648;-49
2022/03/22 11:22:54;;;;;;;2.42;2.20;;;31.90;16.20;;;;;;5152748;22;20258;-51
2022/03/22 11:25:35;;;;;;;2.42;1.92;;;31.90;13.70;;;;;;5072647;28;20231;-55
2022/03/22 11:28:11;;;;;;;2.47;2.28;;;31.50;17.10;;;;;;5073204;28;20230;-51
2022/03/22 11:30:39;;;;;;;2.08;1.98;;;31.10;21.80;;;;;;5073537;28;20619;-49
2022/03/22 11:35:56;;;;;;;1.77;1.67;;;31.60;14.60;;;;;;5073823;28;20693;-53
2022/03/22 11:38:47;;;;;;;2.00;1.90;;;32.00;14.70;;;;;;5073448;28;20177;-54
2022/03/22 11:44:13;;;;;;;2.15;2.05;;;29.70;13.80;;;;;;5073026;28;20775;-55
2022/03/22 11:46:39;;;;;;;2.33;2.08;;;29.90;14.20;;;;;;5072967;28;20178;-55
2022/03/22 11:49:20;;;;;;;2.30;2.10;;;28.80;14.60;;;;;;5072811;28;20174;-55
2022/03/22 11:52:10;;;;;;;2.45;2.22;;;29.20;16.40;;;;;;5073246;28;20210;-58
2022/03/22 11:54:37;;;;;;;2.22;2.08;;;28.30;16.50;;;;;;5065040;28;20186;-56
2022/03/22 11:57:03;;;;;;;2.58;2.00;;;29.40;20.80;;;;;;5073031;28;20171;-56
2022/03/22 11:59:40;;;;;;;2.08;1.90;;;29.20;16.50;;;;;;5072795;28;20256;-54
2022/03/22 12:02:11;;;;;;;2.35;2.15;;;29.80;16.60;;;;;;5073056;28;20198;-51
2022/03/22 12:04:42;;;;;;;2.10;1.92;;;30.30;17.90;;;;;;5073107;28;20174;-47
2022/03/22 12:07:11;;;;;;;2.20;2.10;;;30.20;18.30;;;;;;5072987;28;20178;-52
2022/03/22 12:09:42;;;;;;;2.30;2.10;;;30.10;19.00;;;;;;5072805;28;20212;-54
2022/03/22 12:12:10;;;;;;;2.75;2.03;;;30.40;16.70;;;;;;5072725;28;20201;-49
2022/03/22 12:14:36;;;;;;;1.88;1.75;;;31.60;14.10;;;;;;5072554;28;20173;-51
2022/03/22 12:17:03;;;;;;;2.00;1.80;;;32.10;17.60;;;;;;5072885;28;20245;-56
2022/03/22 12:19:32;;;;;;;2.75;1.60;;;31.00;12.40;;;;;;5072545;28;20163;-55
2022/03/22 12:21:58;;;;;;;2.58;1.60;;;31.10;16.40;;;;;;5072562;28;20677;-55
2022/03/22 12:24:25;;;;;;;2.47;1.63;;;31.90;16.20;;;;;;5072323;28;20195;-53
2022/03/22 12:26:51;;;;;;;2.03;1.85;;;31.90;15.80;;;;;;5072612;28;20167;-50
2022/03/22 12:29:18;;;;;;;1.70;1.60;;;31.70;15.70;;;;;;5072539;28;20678;-53
2022/03/22 12:31:52;;;;;;;2.63;1.73;;;31.90;15.50;;;;;;5072257;28;20281;-53
2022/03/22 12:34:18;;;;;;;1.88;1.77;;;31.70;17.30;;;;;;5072037;28;20163;-53
2022/03/22 12:36:44;;;;;;;1.52;1.42;;;;;;;;;;5072403;28;20174;-53
2022/03/22 12:39:10;;;;;;;1.90;1.60;;;32.00;19.20;;;;;;5072419;28;20303;-51
2022/03/22 12:41:36;;;;;;;4.40;1.52;;;31.80;13.80;;;;;;5072191;28;20178;-54
2022/03/22 12:44:03;;;;;;;1.73;1.60;;;31.80;16.30;;;;;;5072078;28;20203;-53
2022/03/22 12:46:28;;;;;;;1.90;1.40;;;32.40;14.60;;;;;;5052306;28;20181;-55
2022/03/22 12:48:55;;;;;;;1.80;1.70;;;32.80;12.40;;;;;;5071185;28;20693;-58
2022/03/22 12:51:25;;;;;;;1.40;1.30;;;33.30;15.20;;;;;;5071506;28;20198;-56
2022/03/22 12:53:53;;;;;;;1.50;1.40;;;33.60;19.90;;;;;;5071809;28;20225;-55
2022/03/22 12:56:20;;;;;;;1.98;1.40;;;33.00;13.70;;;;;;5071739;28;20806;-55
2022/03/22 12:58:47;;;;;;;1.40;1.30;;;33.20;18.00;;;;;;5071926;28;20170;-52
2022/03/22 13:01:13;;;;;;;1.45;1.35;;;32.80;15.80;;;;;;5072003;28;20582;-55
2022/03/22 13:03:38;;;;;;;1.50;1.40;;;30.90;17.20;;;;;;5071477;28;20259;-54
2022/03/22 13:06:07;;;;;;;2.60;1.50;;;31.60;17.90;;;;;;5071570;28;20185;-53
2022/03/22 13:11:29;;;;;;;1.52;1.40;;;31.60;13.20;;;;;;5071968;28;20206;-54
2022/03/22 13:16:41;;;;;;;1.98;1.50;;;31.10;15.60;;;;;;5071780;28;20217;-54
2022/03/22 13:19:07;;;;;;;2.83;1.50;;;31.40;16.40;;;;;;5071789;28;20163;-52
2022/03/22 13:21:35;;;;;;;1.55;1.45;;;31.10;14.90;;;;;;5071540;28;20185;-52
2022/03/22 13:24:22;;;;;;;1.40;1.30;;;31.40;19.70;;;;;;5071123;28;20214;-56
2022/03/22 13:27:02;;;;;;;1.40;1.30;;;32.00;12.50;;;;;;5071681;28;20167;-53
2022/03/22 13:29:35;;;;;;;1.67;1.42;;;30.60;12.60;;;;;;5071748;28;20666;-55
2022/03/22 13:32:03;;;;;;;1.38;1.27;;;30.90;13.40;;;;;;5071583;28;20210;-57